sensor_id;sensor_type;location;lat;lon;timestamp;pressure;altitude;pressure_sealevel;temperature
8533;BMP280;4304;53.876;10.662;2023-03-23T00:01:06;100240.41;;;10.67
8533;BMP280;4304;53.876;10.662;2023-03-23T00:03:32;100234.84;;;10.61
8533;BMP280;4304;53.876;10.662;2023-03-23T00:05:58;100240.78;;;10.63
8533;BMP280;4304;53.876;10.662;2023-03-23T00:08:36;100233.44;;;10.57
8533;BMP280;4304;53.876;10.662;2023-03-23T00:11:12;100232.50;;;10.58
8533;BMP280;4304;53.876;10.662;2023-03-23T00:13:40;100241.22;;;10.57
8533;BMP280;4304;53.876;10.662;2023-03-23T00:16:06;100225.97;;;10.53
8533;BMP280;4304;53.876;10.662;2023-03-23T00:18:50;100230.25;;;10.54
8533;BMP280;4304;53.876;10.662;2023-03-23T00:21:23;100234.72;;;10.52
8533;BMP280;4304;53.876;10.662;2023-03-23T00:23:58;100228.78;;;10.50
8533;BMP280;4304;53.876;10.662;2023-03-23T00:26:24;100236.25;;;10.54
8533;BMP280;4304;53.876;10.662;2023-03-23T00:28:53;100223.38;;;10.53
8533;BMP280;4304;53.876;10.662;2023-03-23T00:31:18;100222.66;;;10.51
8533;BMP280;4304;53.876;10.662;2023-03-23T00:33:44;100225.88;;;10.43
8533;BMP280;4304;53.876;10.662;2023-03-23T00:36:11;100235.50;;;10.41
8533;BMP280;4304;53.876;10.662;2023-03-23T00:38:37;100229.50;;;10.41
8533;BMP280;4304;53.876;10.662;2023-03-23T00:41:04;100228.69;;;10.40
8533;BMP280;4304;53.876;10.662;2023-03-23T00:43:30;100230.53;;;10.38
8533;BMP280;4304;53.876;10.662;2023-03-23T00:45:57;100235.97;;;10.35
8533;BMP280;4304;53.876;10.662;2023-03-23T00:48:26;100236.91;;;10.34
8533;BMP280;4304;53.876;10.662;2023-03-23T00:50:52;100228.41;;;10.32
8533;BMP280;4304;53.876;10.662;2023-03-23T00:53:18;100223.34;;;10.31
8533;BMP280;4304;53.876;10.662;2023-03-23T00:55:44;100226.25;;;10.26
8533;BMP280;4304;53.876;10.662;2023-03-23T00:58:11;100219.19;;;10.28
8533;BMP280;4304;53.876;10.662;2023-03-23T01:00:36;100214.94;;;10.27
8533;BMP280;4304;53.876;10.662;2023-03-23T01:03:02;100216.59;;;10.28
8533;BMP280;4304;53.876;10.662;2023-03-23T01:05:27;100208.78;;;10.28
8533;BMP280;4304;53.876;10.662;2023-03-23T01:07:57;100202.78;;;10.28
8533;BMP280;4304;53.876;10.662;2023-03-23T01:10:22;100196.88;;;10.26
8533;BMP280;4304;53.876;10.662;2023-03-23T01:12:49;100181.19;;;10.27
8533;BMP280;4304;53.876;10.662;2023-03-23T01:15:16;100182.47;;;10.22
8533;BMP280;4304;53.876;10.662;2023-03-23T01:17:43;100175.41;;;10.24
8533;BMP280;4304;53.876;10.662;2023-03-23T01:20:09;100173.84;;;10.22
8533;BMP280;4304;53.876;10.662;2023-03-23T01:22:36;100169.13;;;10.16
8533;BMP280;4304;53.876;10.662;2023-03-23T01:25:01;100168.16;;;10.17
8533;BMP280;4304;53.876;10.662;2023-03-23T01:27:27;100152.81;;;10.14
8533;BMP280;4304;53.876;10.662;2023-03-23T01:29:52;100162.06;;;10.18
8533;BMP280;4304;53.876;10.662;2023-03-23T01:32:17;100154.38;;;10.16
8533;BMP280;4304;53.876;10.662;2023-03-23T01:34:42;100149.88;;;10.18
8533;BMP280;4304;53.876;10.662;2023-03-23T01:37:08;100133.50;;;10.18
8533;BMP280;4304;53.876;10.662;2023-03-23T01:39:35;100144.22;;;10.13
8533;BMP280;4304;53.876;10.662;2023-03-23T01:42:01;100142.91;;;10.19
8533;BMP280;4304;53.876;10.662;2023-03-23T01:46:55;100135.50;;;10.14
8533;BMP280;4304;53.876;10.662;2023-03-23T01:49:24;100130.53;;;10.11
8533;BMP280;4304;53.876;10.662;2023-03-23T01:51:55;100136.31;;;10.15
8533;BMP280;4304;53.876;10.662;2023-03-23T01:54:23;100127.81;;;10.13
8533;BMP280;4304;53.876;10.662;2023-03-23T01:57:07;100130.91;;;10.18
8533;BMP280;4304;53.876;10.662;2023-03-23T01:59:36;100120.97;;;10.12
8533;BMP280;4304;53.876;10.662;2023-03-23T02:02:03;100112.25;;;10.13
8533;BMP280;4304;53.876;10.662;2023-03-23T02:04:29;100104.69;;;10.10
8533;BMP280;4304;53.876;10.662;2023-03-23T02:06:56;100118.84;;;10.06
8533;BMP280;4304;53.876;10.662;2023-03-23T02:09:26;100114.13;;;10.11
8533;BMP280;4304;53.876;10.662;2023-03-23T02:11:52;100112.69;;;10.07
8533;BMP280;4304;53.876;10.662;2023-03-23T02:14:19;100098.06;;;10.06
8533;BMP280;4304;53.876;10.662;2023-03-23T02:16:50;100087.91;;;10.03
8533;BMP280;4304;53.876;10.662;2023-03-23T02:22:52;100090.50;;;10.03
8533;BMP280;4304;53.876;10.662;2023-03-23T02:35:53;100089.81;;;10.12
8533;BMP280;4304;53.876;10.662;2023-03-23T02:41:20;100084.50;;;10.13
8533;BMP280;4304;53.876;10.662;2023-03-23T02:43:46;100086.28;;;10.13
8533;BMP280;4304;53.876;10.662;2023-03-23T02:46:14;100082.88;;;10.12
8533;BMP280;4304;53.876;10.662;2023-03-23T02:48:40;100066.34;;;10.13
8533;BMP280;4304;53.876;10.662;2023-03-23T02:51:07;100057.38;;;10.06
8533;BMP280;4304;53.876;10.662;2023-03-23T02:53:36;100061.38;;;10.10
8533;BMP280;4304;53.876;10.662;2023-03-23T02:56:03;100064.34;;;10.06
8533;BMP280;4304;53.876;10.662;2023-03-23T02:58:30;100053.47;;;10.12
8533;BMP280;4304;53.876;10.662;2023-03-23T03:00:56;100054.91;;;10.16
8533;BMP280;4304;53.876;10.662;2023-03-23T03:03:23;100054.31;;;10.12
8533;BMP280;4304;53.876;10.662;2023-03-23T03:08:50;100037.91;;;10.12
8533;BMP280;4304;53.876;10.662;2023-03-23T03:11:18;100049.47;;;10.08
8533;BMP280;4304;53.876;10.662;2023-03-23T03:13:48;100028.56;;;9.98
8533;BMP280;4304;53.876;10.662;2023-03-23T03:21:18;100031.28;;;10.08
8533;BMP280;4304;53.876;10.662;2023-03-23T03:23:52;100041.34;;;10.12
8533;BMP280;4304;53.876;10.662;2023-03-23T03:26:17;100044.88;;;10.11
8533;BMP280;4304;53.876;10.662;2023-03-23T03:28:46;100040.38;;;10.13
8533;BMP280;4304;53.876;10.662;2023-03-23T03:31:15;100041.66;;;10.19
8533;BMP280;4304;53.876;10.662;2023-03-23T03:33:41;100050.53;;;10.16
8533;BMP280;4304;53.876;10.662;2023-03-23T03:36:07;100040.25;;;10.15
8533;BMP280;4304;53.876;10.662;2023-03-23T03:38:43;100038.97;;;10.20
8533;BMP280;4304;53.876;10.662;2023-03-23T03:41:09;100037.22;;;10.21
8533;BMP280;4304;53.876;10.662;2023-03-23T03:43:35;100027.53;;;10.23
8533;BMP280;4304;53.876;10.662;2023-03-23T03:46:01;100013.84;;;10.21
8533;BMP280;4304;53.876;10.662;2023-03-23T03:48:26;99987.03;;;10.20
8533;BMP280;4304;53.876;10.662;2023-03-23T03:50:51;100008.19;;;10.16
8533;BMP280;4304;53.876;10.662;2023-03-23T03:53:17;99999.81;;;10.12
8533;BMP280;4304;53.876;10.662;2023-03-23T03:55:42;100005.94;;;10.22
8533;BMP280;4304;53.876;10.662;2023-03-23T03:58:13;100007.69;;;10.22
8533;BMP280;4304;53.876;10.662;2023-03-23T04:00:38;99984.31;;;10.22
8533;BMP280;4304;53.876;10.662;2023-03-23T04:03:04;99997.69;;;10.17
8533;BMP280;4304;53.876;10.662;2023-03-23T04:05:29;99988.81;;;10.20
8533;BMP280;4304;53.876;10.662;2023-03-23T04:07:54;99984.31;;;10.22
8533;BMP280;4304;53.876;10.662;2023-03-23T04:10:26;99987.53;;;10.14
8533;BMP280;4304;53.876;10.662;2023-03-23T04:12:52;100001.78;;;10.20
8533;BMP280;4304;53.876;10.662;2023-03-23T04:15:17;100002.28;;;10.24
8533;BMP280;4304;53.876;10.662;2023-03-23T04:17:43;100007.56;;;10.23
8533;BMP280;4304;53.876;10.662;2023-03-23T04:20:09;100011.25;;;10.21
8533;BMP280;4304;53.876;10.662;2023-03-23T04:22:38;100015.47;;;10.22
8533;BMP280;4304;53.876;10.662;2023-03-23T04:25:03;100008.38;;;10.23
8533;BMP280;4304;53.876;10.662;2023-03-23T04:27:31;100019.25;;;10.28
8533;BMP280;4304;53.876;10.662;2023-03-23T04:29:57;100006.53;;;10.25
8533;BMP280;4304;53.876;10.662;2023-03-23T04:32:24;100016.19;;;10.23
8533;BMP280;4304;53.876;10.662;2023-03-23T04:34:58;100025.41;;;10.27
8533;BMP280;4304;53.876;10.662;2023-03-23T04:37:25;100021.38;;;10.23
8533;BMP280;4304;53.876;10.662;2023-03-23T04:39:57;100028.94;;;10.26
8533;BMP280;4304;53.876;10.662;2023-03-23T04:42:30;100030.81;;;10.24
8533;BMP280;4304;53.876;10.662;2023-03-23T04:44:57;100020.22;;;10.27
8533;BMP280;4304;53.876;10.662;2023-03-23T04:47:24;100032.50;;;10.25
8533;BMP280;4304;53.876;10.662;2023-03-23T04:49:49;100036.03;;;10.24
8533;BMP280;4304;53.876;10.662;2023-03-23T04:52:16;100022.34;;;10.23
8533;BMP280;4304;53.876;10.662;2023-03-23T04:54:42;100018.66;;;10.25
8533;BMP280;4304;53.876;10.662;2023-03-23T04:57:08;100028.47;;;10.22
8533;BMP280;4304;53.876;10.662;2023-03-23T04:59:33;100011.13;;;10.22
8533;BMP280;4304;53.876;10.662;2023-03-23T05:01:59;100014.31;;;10.15
8533;BMP280;4304;53.876;10.662;2023-03-23T05:04:24;100013.25;;;10.17
8533;BMP280;4304;53.876;10.662;2023-03-23T05:06:51;100003.69;;;10.18
8533;BMP280;4304;53.876;10.662;2023-03-23T05:09:16;100009.94;;;10.15
8533;BMP280;4304;53.876;10.662;2023-03-23T05:11:42;100006.19;;;10.19
8533;BMP280;4304;53.876;10.662;2023-03-23T05:14:07;100015.97;;;10.16
8533;BMP280;4304;53.876;10.662;2023-03-23T05:16:32;100023.03;;;10.24
8533;BMP280;4304;53.876;10.662;2023-03-23T05:18:58;100020.44;;;10.24
8533;BMP280;4304;53.876;10.662;2023-03-23T05:21:23;100018.66;;;10.25
8533;BMP280;4304;53.876;10.662;2023-03-23T05:23:49;100014.06;;;10.28
8533;BMP280;4304;53.876;10.662;2023-03-23T05:26:23;100007.81;;;10.20
8533;BMP280;4304;53.876;10.662;2023-03-23T05:28:54;100003.69;;;10.18
8533;BMP280;4304;53.876;10.662;2023-03-23T05:31:21;100005.69;;;10.14
8533;BMP280;4304;53.876;10.662;2023-03-23T05:33:47;100009.34;;;10.12
8533;BMP280;4304;53.876;10.662;2023-03-23T05:36:12;100008.19;;;10.16
8533;BMP280;4304;53.876;10.662;2023-03-23T05:38:39;100004.50;;;10.18
8533;BMP280;4304;53.876;10.662;2023-03-23T05:41:07;100007.00;;;10.20
8533;BMP280;4304;53.876;10.662;2023-03-23T05:43:33;100003.69;;;10.18
8533;BMP280;4304;53.876;10.662;2023-03-23T05:45:58;99995.66;;;10.21
8533;BMP280;4304;53.876;10.662;2023-03-23T05:48:24;99998.97;;;10.23
8533;BMP280;4304;53.876;10.662;2023-03-23T05:50:49;100002.50;;;10.22
8533;BMP280;4304;53.876;10.662;2023-03-23T05:53:15;99993.06;;;10.21
8533;BMP280;4304;53.876;10.662;2023-03-23T05:55:41;99986.81;;;10.23
8533;BMP280;4304;53.876;10.662;2023-03-23T05:58:06;99994.38;;;10.26
8533;BMP280;4304;53.876;10.662;2023-03-23T06:00:31;99990.94;;;10.25
8533;BMP280;4304;53.876;10.662;2023-03-23T06:02:58;99990.94;;;10.25
8533;BMP280;4304;53.876;10.662;2023-03-23T06:05:23;99994.94;;;10.29
8533;BMP280;4304;53.876;10.662;2023-03-23T06:07:51;99986.34;;;10.29
8533;BMP280;4304;53.876;10.662;2023-03-23T06:10:17;99995.88;;;10.28
8533;BMP280;4304;53.876;10.662;2023-03-23T06:12:42;99995.41;;;10.34
8533;BMP280;4304;53.876;10.662;2023-03-23T06:15:09;99978.78;;;10.37
8533;BMP280;4304;53.876;10.662;2023-03-23T06:17:35;99969.34;;;10.36
8533;BMP280;4304;53.876;10.662;2023-03-23T06:20:02;99974.53;;;10.36
8533;BMP280;4304;53.876;10.662;2023-03-23T06:22:29;99975.56;;;10.33
8533;BMP280;4304;53.876;10.662;2023-03-23T06:24:55;99973.72;;;10.35
8533;BMP280;4304;53.876;10.662;2023-03-23T06:27:22;99980.66;;;10.35
8533;BMP280;4304;53.876;10.662;2023-03-23T06:29:48;99972.50;;;10.39
8533;BMP280;4304;53.876;10.662;2023-03-23T06:32:13;99966.97;;;10.44
8533;BMP280;4304;53.876;10.662;2023-03-23T06:34:39;99967.09;;;10.42
8533;BMP280;4304;53.876;10.662;2023-03-23T06:37:09;99965.19;;;10.44
8533;BMP280;4304;53.876;10.662;2023-03-23T06:39:34;99980.88;;;10.54
8533;BMP280;4304;53.876;10.662;2023-03-23T06:42:01;99982.38;;;10.67
8533;BMP280;4304;53.876;10.662;2023-03-23T06:44:27;99977.06;;;10.79
8533;BMP280;4304;53.876;10.662;2023-03-23T06:46:52;99976.22;;;10.79
8533;BMP280;4304;53.876;10.662;2023-03-23T06:49:17;99970.31;;;10.77
8533;BMP280;4304;53.876;10.662;2023-03-23T06:51:43;99962.72;;;10.85
8533;BMP280;4304;53.876;10.662;2023-03-23T06:54:08;99981.16;;;11.13
8533;BMP280;4304;53.876;10.662;2023-03-23T06:56:34;99977.56;;;11.25
8533;BMP280;4304;53.876;10.662;2023-03-23T06:59:00;99969.63;;;11.26
8533;BMP280;4304;53.876;10.662;2023-03-23T07:01:25;99981.47;;;11.30
8533;BMP280;4304;53.876;10.662;2023-03-23T07:03:53;99986.13;;;11.36
8533;BMP280;4304;53.876;10.662;2023-03-23T07:06:18;99984.19;;;11.69
8533;BMP280;4304;53.876;10.662;2023-03-23T07:08:44;99982.03;;;11.94
8533;BMP280;4304;53.876;10.662;2023-03-23T07:11:09;99975.03;;;11.95
8533;BMP280;4304;53.876;10.662;2023-03-23T07:13:35;99979.78;;;12.10
8533;BMP280;4304;53.876;10.662;2023-03-23T07:16:04;99972.88;;;12.39
8533;BMP280;4304;53.876;10.662;2023-03-23T07:18:31;99967.69;;;12.39
8533;BMP280;4304;53.876;10.662;2023-03-23T07:20:56;99974.69;;;12.38
8533;BMP280;4304;53.876;10.662;2023-03-23T07:23:22;99963.13;;;12.32
8533;BMP280;4304;53.876;10.662;2023-03-23T07:25:47;99967.44;;;12.42
8533;BMP280;4304;53.876;10.662;2023-03-23T07:28:13;99962.91;;;12.44
8533;BMP280;4304;53.876;10.662;2023-03-23T07:30:39;99963.84;;;12.34
8533;BMP280;4304;53.876;10.662;2023-03-23T07:33:06;99954.75;;;12.19
8533;BMP280;4304;53.876;10.662;2023-03-23T07:35:32;99962.09;;;12.53
8533;BMP280;4304;53.876;10.662;2023-03-23T07:37:58;99965.13;;;12.48
8533;BMP280;4304;53.876;10.662;2023-03-23T07:40:23;99961.66;;;12.38
8533;BMP280;4304;53.876;10.662;2023-03-23T07:42:54;99973.75;;;12.49
8533;BMP280;4304;53.876;10.662;2023-03-23T07:45:20;99954.94;;;12.45
8533;BMP280;4304;53.876;10.662;2023-03-23T07:47:45;99973.97;;;12.36
8533;BMP280;4304;53.876;10.662;2023-03-23T07:50:11;99974.97;;;12.45
8533;BMP280;4304;53.876;10.662;2023-03-23T07:52:37;99959.63;;;12.51
8533;BMP280;4304;53.876;10.662;2023-03-23T07:55:05;99980.91;;;12.56
8533;BMP280;4304;53.876;10.662;2023-03-23T07:57:31;99986.22;;;12.45
8533;BMP280;4304;53.876;10.662;2023-03-23T07:59:57;99972.22;;;12.37
8533;BMP280;4304;53.876;10.662;2023-03-23T08:02:23;99981.22;;;12.33
8533;BMP280;4304;53.876;10.662;2023-03-23T08:04:49;99986.94;;;12.18
8533;BMP280;4304;53.876;10.662;2023-03-23T08:07:14;99984.03;;;12.11
8533;BMP280;4304;53.876;10.662;2023-03-23T08:09:42;99991.66;;;12.03
8533;BMP280;4304;53.876;10.662;2023-03-23T08:12:07;99990.28;;;11.99
8533;BMP280;4304;53.876;10.662;2023-03-23T08:14:32;99993.75;;;12.09
8533;BMP280;4304;53.876;10.662;2023-03-23T08:16:58;99991.53;;;12.05
8533;BMP280;4304;53.876;10.662;2023-03-23T08:19:24;99991.16;;;12.09
8533;BMP280;4304;53.876;10.662;2023-03-23T08:21:50;99997.88;;;12.12
8533;BMP280;4304;53.876;10.662;2023-03-23T08:24:16;99999.66;;;12.11
8533;BMP280;4304;53.876;10.662;2023-03-23T08:26:42;100011.47;;;12.15
8533;BMP280;4304;53.876;10.662;2023-03-23T08:29:08;100008.59;;;12.18
8533;BMP280;4304;53.876;10.662;2023-03-23T08:31:33;100000.88;;;12.07
8533;BMP280;4304;53.876;10.662;2023-03-23T08:34:04;100014.47;;;12.11
8533;BMP280;4304;53.876;10.662;2023-03-23T08:36:33;100008.88;;;12.15
8533;BMP280;4304;53.876;10.662;2023-03-23T08:38:59;100021.66;;;11.98
8533;BMP280;4304;53.876;10.662;2023-03-23T08:41:25;100023.69;;;11.94
8533;BMP280;4304;53.876;10.662;2023-03-23T08:43:51;100025.22;;;11.77
8533;BMP280;4304;53.876;10.662;2023-03-23T08:46:18;100036.56;;;11.76
8533;BMP280;4304;53.876;10.662;2023-03-23T08:48:45;100026.63;;;11.60
8533;BMP280;4304;53.876;10.662;2023-03-23T08:51:10;100028.06;;;11.53
8533;BMP280;4304;53.876;10.662;2023-03-23T08:53:39;100025.16;;;11.47
8533;BMP280;4304;53.876;10.662;2023-03-23T08:56:09;100025.84;;;11.38
8533;BMP280;4304;53.876;10.662;2023-03-23T08:58:36;100022.63;;;11.25
8533;BMP280;4304;53.876;10.662;2023-03-23T09:01:02;100027.22;;;11.22
8533;BMP280;4304;53.876;10.662;2023-03-23T09:03:27;100031.59;;;11.21
8533;BMP280;4304;53.876;10.662;2023-03-23T09:05:53;100023.09;;;11.19
8533;BMP280;4304;53.876;10.662;2023-03-23T09:08:19;100030.28;;;11.27
8533;BMP280;4304;53.876;10.662;2023-03-23T09:10:44;100034.03;;;11.34
8533;BMP280;4304;53.876;10.662;2023-03-23T09:13:10;100030.28;;;11.27
8533;BMP280;4304;53.876;10.662;2023-03-23T09:15:36;100019.28;;;11.23
8533;BMP280;4304;53.876;10.662;2023-03-23T09:18:02;100031.59;;;11.21
8533;BMP280;4304;53.876;10.662;2023-03-23T09:20:28;100034.06;;;11.23
8533;BMP280;4304;53.876;10.662;2023-03-23T09:22:56;100036.53;;;11.35
8533;BMP280;4304;53.876;10.662;2023-03-23T09:25:24;100038.84;;;11.38
8533;BMP280;4304;53.876;10.662;2023-03-23T09:27:57;100040.38;;;11.52
8533;BMP280;4304;53.876;10.662;2023-03-23T09:30:25;100053.91;;;11.66
8533;BMP280;4304;53.876;10.662;2023-03-23T09:32:52;100062.34;;;11.58
8533;BMP280;4304;53.876;10.662;2023-03-23T09:35:18;100054.88;;;11.65
8533;BMP280;4304;53.876;10.662;2023-03-23T09:37:47;100069.50;;;11.66
8533;BMP280;4304;53.876;10.662;2023-03-23T09:40:22;100066.41;;;11.72
8533;BMP280;4304;53.876;10.662;2023-03-23T09:51:45;100081.88;;;12.34
8533;BMP280;4304;53.876;10.662;2023-03-23T09:54:18;100076.31;;;12.78
8533;BMP280;4304;53.876;10.662;2023-03-23T09:56:45;100083.75;;;12.82
8533;BMP280;4304;53.876;10.662;2023-03-23T09:59:19;100084.72;;;12.81
8533;BMP280;4304;53.876;10.662;2023-03-23T10:01:51;100079.09;;;12.85
8533;BMP280;4304;53.876;10.662;2023-03-23T10:04:38;100075.03;;;13.11
8533;BMP280;4304;53.876;10.662;2023-03-23T10:07:19;100077.69;;;13.21
8533;BMP280;4304;53.876;10.662;2023-03-23T10:09:47;100073.16;;;13.23
8533;BMP280;4304;53.876;10.662;2023-03-23T10:15:09;100090.03;;;13.19
8533;BMP280;4304;53.876;10.662;2023-03-23T10:17:43;100085.34;;;13.13
8533;BMP280;4304;53.876;10.662;2023-03-23T10:23:12;100107.25;;;13.40
8533;BMP280;4304;53.876;10.662;2023-03-23T10:25:43;100108.19;;;13.39
8533;BMP280;4304;53.876;10.662;2023-03-23T10:28:13;100115.91;;;13.50
8533;BMP280;4304;53.876;10.662;2023-03-23T10:30:43;100105.31;;;13.42
8533;BMP280;4304;53.876;10.662;2023-03-23T10:33:20;100099.97;;;13.43
8533;BMP280;4304;53.876;10.662;2023-03-23T10:35:57;100087.44;;;13.65
8533;BMP280;4304;53.876;10.662;2023-03-23T10:38:31;100102.97;;;14.23
8533;BMP280;4304;53.876;10.662;2023-03-23T10:41:10;100111.41;;;14.80
8533;BMP280;4304;53.876;10.662;2023-03-23T10:43:39;100096.31;;;15.01
8533;BMP280;4304;53.876;10.662;2023-03-23T10:46:18;100094.88;;;14.89
8533;BMP280;4304;53.876;10.662;2023-03-23T10:48:47;100114.78;;;14.99
8533;BMP280;4304;53.876;10.662;2023-03-23T10:51:16;100110.44;;;14.54
8533;BMP280;4304;53.876;10.662;2023-03-23T10:53:46;100117.50;;;14.45
8533;BMP280;4304;53.876;10.662;2023-03-23T10:56:24;100106.28;;;14.16
8533;BMP280;4304;53.876;10.662;2023-03-23T10:58:51;100100.78;;;14.09
8533;BMP280;4304;53.876;10.662;2023-03-23T11:01:19;100099.38;;;14.15
8533;BMP280;4304;53.876;10.662;2023-03-23T11:03:47;100117.66;;;14.24
8533;BMP280;4304;53.876;10.662;2023-03-23T11:06:23;100117.84;;;14.04
8533;BMP280;4304;53.876;10.662;2023-03-23T11:11:42;100123.28;;;14.20
8533;BMP280;4304;53.876;10.662;2023-03-23T11:16:53;100127.72;;;14.01
8533;BMP280;4304;53.876;10.662;2023-03-23T11:19:27;100140.50;;;13.94
8533;BMP280;4304;53.876;10.662;2023-03-23T11:22:05;100139.81;;;14.11
8533;BMP280;4304;53.876;10.662;2023-03-23T11:24:43;100124.41;;;14.27
8533;BMP280;4304;53.876;10.662;2023-03-23T11:27:10;100145.06;;;14.20
8533;BMP280;4304;53.876;10.662;2023-03-23T11:29:45;100149.03;;;13.96
8533;BMP280;4304;53.876;10.662;2023-03-23T11:32:12;100155.34;;;13.84
8533;BMP280;4304;53.876;10.662;2023-03-23T11:34:48;100155.75;;;13.80
8533;BMP280;4304;53.876;10.662;2023-03-23T11:37:20;100166.34;;;13.78
8533;BMP280;4304;53.876;10.662;2023-03-23T11:39:54;100164.41;;;13.90
8533;BMP280;4304;53.876;10.662;2023-03-23T11:42:26;100176.38;;;13.92
8533;BMP280;4304;53.876;10.662;2023-03-23T11:50:26;100188.38;;;14.04
8533;BMP280;4304;53.876;10.662;2023-03-23T11:53:02;100203.06;;;14.14
8533;BMP280;4304;53.876;10.662;2023-03-23T11:55:58;100213.78;;;14.11
8533;BMP280;4304;53.876;10.662;2023-03-23T11:58:24;100221.78;;;14.19
8533;BMP280;4304;53.876;10.662;2023-03-23T12:00:58;100208.84;;;14.27
8533;BMP280;4304;53.876;10.662;2023-03-23T12:06:10;100201.69;;;14.20
8533;BMP280;4304;53.876;10.662;2023-03-23T12:13:42;100217.38;;;14.20
8533;BMP280;4304;53.876;10.662;2023-03-23T12:24:43;100175.00;;;14.35
8533;BMP280;4304;53.876;10.662;2023-03-23T12:30:21;100216.94;;;14.52
8533;BMP280;4304;53.876;10.662;2023-03-23T12:35:40;100193.72;;;14.21
8533;BMP280;4304;53.876;10.662;2023-03-23T12:41:07;100186.19;;;14.09
8533;BMP280;4304;53.876;10.662;2023-03-23T12:54:33;100178.03;;;14.31
8533;BMP280;4304;53.876;10.662;2023-03-23T12:59:41;100159.34;;;13.98
8533;BMP280;4304;53.876;10.662;2023-03-23T13:02:30;100162.34;;;13.93
8533;BMP280;4304;53.876;10.662;2023-03-23T13:05:02;100171.03;;;14.12
8533;BMP280;4304;53.876;10.662;2023-03-23T13:07:37;100177.50;;;14.37
8533;BMP280;4304;53.876;10.662;2023-03-23T13:10:27;100189.16;;;14.42
8533;BMP280;4304;53.876;10.662;2023-03-23T13:12:53;100190.41;;;14.38
8533;BMP280;4304;53.876;10.662;2023-03-23T13:21:02;100205.97;;;14.40
8533;BMP280;4304;53.876;10.662;2023-03-23T13:23:39;100174.16;;;14.44
8533;BMP280;4304;53.876;10.662;2023-03-23T13:26:09;100164.38;;;14.46
8533;BMP280;4304;53.876;10.662;2023-03-23T13:29:05;100174.81;;;14.55
8533;BMP280;4304;53.876;10.662;2023-03-23T13:31:38;100165.16;;;14.65
8533;BMP280;4304;53.876;10.662;2023-03-23T13:38:59;100169.59;;;15.01
8533;BMP280;4304;53.876;10.662;2023-03-23T13:41:25;100161.97;;;14.81
8533;BMP280;4304;53.876;10.662;2023-03-23T13:43:51;100149.66;;;14.54
8533;BMP280;4304;53.876;10.662;2023-03-23T13:48:50;100149.59;;;14.18
8533;BMP280;4304;53.876;10.662;2023-03-23T13:51:26;100146.41;;;14.24
8533;BMP280;4304;53.876;10.662;2023-03-23T13:54:06;100149.28;;;14.03
8533;BMP280;4304;53.876;10.662;2023-03-23T13:56:41;100145.88;;;14.11
8533;BMP280;4304;53.876;10.662;2023-03-23T14:01:39;100150.25;;;14.02
8533;BMP280;4304;53.876;10.662;2023-03-23T14:04:11;100171.69;;;13.86
8533;BMP280;4304;53.876;10.662;2023-03-23T14:06:38;100173.88;;;13.72
8533;BMP280;4304;53.876;10.662;2023-03-23T14:09:12;100169.34;;;13.65
8533;BMP280;4304;53.876;10.662;2023-03-23T14:11:50;100175.09;;;13.59
8533;BMP280;4304;53.876;10.662;2023-03-23T14:14:55;100174.28;;;13.58
8533;BMP280;4304;53.876;10.662;2023-03-23T14:17:25;100168.22;;;13.39
8533;BMP280;4304;53.876;10.662;2023-03-23T14:19:53;100186.19;;;13.32
8533;BMP280;4304;53.876;10.662;2023-03-23T14:22:40;100183.69;;;13.31
8533;BMP280;4304;53.876;10.662;2023-03-23T14:25:18;100189.91;;;13.30
8533;BMP280;4304;53.876;10.662;2023-03-23T14:27:45;100197.63;;;13.11
8533;BMP280;4304;53.876;10.662;2023-03-23T14:30:17;100207.34;;;13.00
8533;BMP280;4304;53.876;10.662;2023-03-23T14:32:43;100222.13;;;12.70
8533;BMP280;4304;53.876;10.662;2023-03-23T14:35:30;100211.63;;;12.20
8533;BMP280;4304;53.876;10.662;2023-03-23T14:37:56;100196.31;;;12.06
8533;BMP280;4304;53.876;10.662;2023-03-23T14:40:22;100211.59;;;11.99
8533;BMP280;4304;53.876;10.662;2023-03-23T14:42:50;100196.34;;;11.95
8533;BMP280;4304;53.876;10.662;2023-03-23T14:45:17;100193.19;;;11.81
8533;BMP280;4304;53.876;10.662;2023-03-23T14:47:56;100205.25;;;11.82
8533;BMP280;4304;53.876;10.662;2023-03-23T14:50:29;100193.78;;;11.84
8533;BMP280;4304;53.876;10.662;2023-03-23T14:53:37;100229.34;;;11.63
8533;BMP280;4304;53.876;10.662;2023-03-23T14:56:23;100222.50;;;11.52
8533;BMP280;4304;53.876;10.662;2023-03-23T14:58:53;100222.13;;;11.34
8533;BMP280;4304;53.876;10.662;2023-03-23T15:01:23;100229.94;;;11.12
8533;BMP280;4304;53.876;10.662;2023-03-23T15:04:02;100219.78;;;11.20
8533;BMP280;4304;53.876;10.662;2023-03-23T15:06:31;100234.44;;;11.21
8533;BMP280;4304;53.876;10.662;2023-03-23T15:09:00;100244.13;;;11.19
8533;BMP280;4304;53.876;10.662;2023-03-23T15:11:32;100249.91;;;11.12
8533;BMP280;4304;53.876;10.662;2023-03-23T15:14:02;100234.31;;;11.23
8533;BMP280;4304;53.876;10.662;2023-03-23T15:16:33;100248.75;;;11.27
8533;BMP280;4304;53.876;10.662;2023-03-23T15:19:04;100256.88;;;11.44
8533;BMP280;4304;53.876;10.662;2023-03-23T15:21:33;100265.41;;;11.57
8533;BMP280;4304;53.876;10.662;2023-03-23T15:24:17;100267.66;;;11.51
8533;BMP280;4304;53.876;10.662;2023-03-23T15:26:44;100264.94;;;11.52
8533;BMP280;4304;53.876;10.662;2023-03-23T15:29:15;100270.50;;;11.58
8533;BMP280;4304;53.876;10.662;2023-03-23T15:31:46;100242.59;;;11.60
8533;BMP280;4304;53.876;10.662;2023-03-23T15:34:20;100254.63;;;11.72
8533;BMP280;4304;53.876;10.662;2023-03-23T15:36:51;100264.34;;;11.59
8533;BMP280;4304;53.876;10.662;2023-03-23T15:39:17;100257.84;;;11.54
8533;BMP280;4304;53.876;10.662;2023-03-23T15:41:48;100267.78;;;11.49
8533;BMP280;4304;53.876;10.662;2023-03-23T15:44:26;100268.72;;;11.59
8533;BMP280;4304;53.876;10.662;2023-03-23T15:46:53;100262.94;;;11.55
8533;BMP280;4304;53.876;10.662;2023-03-23T15:49:26;100265.63;;;11.43
8533;BMP280;4304;53.876;10.662;2023-03-23T15:51:51;100273.22;;;11.46
8533;BMP280;4304;53.876;10.662;2023-03-23T15:54:16;100271.91;;;11.41
8533;BMP280;4304;53.876;10.662;2023-03-23T15:56:43;100269.41;;;11.28
8533;BMP280;4304;53.876;10.662;2023-03-23T15:59:09;100272.47;;;11.33
8533;BMP280;4304;53.876;10.662;2023-03-23T16:01:36;100272.38;;;11.24
8533;BMP280;4304;53.876;10.662;2023-03-23T16:04:08;100269.41;;;11.28
8533;BMP280;4304;53.876;10.662;2023-03-23T16:06:35;100266.59;;;11.20
8533;BMP280;4304;53.876;10.662;2023-03-23T16:09:02;100276.03;;;11.21